Sally — WDC3701 — position and weather

sailwx.info

Track history (hours):
 
Tides and Currents Weather Stations Pressure Air Temp Water Temp Dewpoint Dewpoint Depression Visibility Wind Speed Wind Dir Waves Ship Positions

Sally

Owner: Wilmington Tug, Inc., New Castle, DE. More information available from US FCC via Universal Licensing System and Coast Guard Vessel Documentation Center.

Last reported at 2018-Jul-23 07:30 UTC. Time now 2018-Jul-23 07:30 UTC.
Position N 39°43' W 075°31'.

Length 24 m; draft 4 m.

Type: Tug. MMSI: 367012660.

Date/timePositionNaut miles runAvg speedWind from/ knotsBaromVisibWave heightAir tempDewpointWater temp
2018-Jul-23 07:30N 39°43' W 075°31'0 0.0
2018-Jul-23 07:00N 39°43' W 075°31'0 0.0
2018-Jul-23 06:30N 39°43' W 075°31'0 0.0
2018-Jul-23 06:00N 39°43' W 075°31'0 0.0
2018-Jul-23 05:30N 39°43' W 075°31'0 0.0
2018-Jul-23 04:59N 39°43' W 075°31'0 0.0
2018-Jul-23 04:30N 39°43' W 075°31'0 0.0
2018-Jul-23 04:00N 39°43' W 075°31'0 0.0
2018-Jul-23 03:30N 39°43' W 075°31'0 0.0
2018-Jul-23 03:00N 39°43' W 075°31'0 0.0
2018-Jul-23 02:30N 39°43' W 075°31'0 0.0
2018-Jul-23 01:58N 39°43' W 075°31'0 0.0
2018-Jul-23 01:30N 39°43' W 075°31'0 0.0
2018-Jul-23 00:59N 39°43' W 075°31'0 0.0
2018-Jul-23 00:30N 39°43' W 075°31'0 0.0
2018-Jul-22 23:59N 39°43' W 075°31'0 0.0
2018-Jul-22 23:30N 39°43' W 075°31'0 0.0
2018-Jul-22 23:00N 39°43' W 075°31'0 0.0
2018-Jul-22 22:30N 39°43' W 075°31'0 0.0
2018-Jul-22 21:59N 39°43' W 075°31'0 0.0
2018-Jul-22 21:30N 39°43' W 075°31'0 0.0
2018-Jul-22 21:00N 39°43' W 075°31'0 0.0
2018-Jul-22 20:30N 39°43' W 075°31'2 4.7
2018-Jul-22 20:00N 39°45' W 075°29'5 9.4
2018-Jul-22 19:30N 39°48' W 075°25'0 0.4
2018-Jul-22 18:59N 39°48' W 075°25'0 0.4
2018-Jul-22 18:29N 39°49' W 075°25'3 6.2
2018-Jul-22 18:00N 39°50' W 075°22'4 8.4
2018-Jul-22 17:30N 39°51' W 075°16'0 0.2
2018-Jul-22 17:00N 39°51' W 075°16'0 0.0
2018-Jul-22 16:30N 39°51' W 075°16'0 0.3
2018-Jul-22 16:00N 39°51' W 075°16'0 0.2
2018-Jul-22 15:00N 39°51' W 075°16'5 9.1
2018-Jul-22 14:30N 39°53' W 075°11'0 0.0
2018-Jul-22 14:00N 39°53' W 075°11'0 0.0
2018-Jul-22 13:30N 39°53' W 075°11'0 0.0
2018-Jul-22 13:00N 39°53' W 075°11'0 0.0
2018-Jul-22 12:30N 39°53' W 075°11'0 0.0
2018-Jul-22 12:00N 39°53' W 075°11'0 0.0
2018-Jul-22 11:31N 39°53' W 075°11'0 0.0
2018-Jul-22 11:00N 39°53' W 075°11'0 0.0
2018-Jul-22 10:30N 39°53' W 075°11'2 4.1
2018-Jul-22 10:01N 39°55' W 075°13'0 0.0
2018-Jul-22 09:30N 39°55' W 075°13'1 1.1
2018-Jul-22 09:01N 39°54' W 075°13'2 3.3
2018-Jul-22 08:30N 39°53' W 075°11'0 0.2
2018-Jul-22 08:00N 39°53' W 075°11'3 5.3
2018-Jul-22 07:30N 39°52' W 075°14'2 3.8
2018-Jul-22 07:00N 39°51' W 075°16'0 0.7
2018-Jul-22 06:30N 39°51' W 075°16'0 0.0
2018-Jul-22 06:01N 39°51' W 075°16'0 0.0
2018-Jul-22 05:30N 39°51' W 075°16'0 0.0
2018-Jul-22 05:00N 39°51' W 075°16'0 0.4
2018-Jul-22 04:30N 39°51' W 075°16'2 4.9
2018-Jul-22 04:00N 39°51' W 075°19'5 9.2
2018-Jul-22 03:30N 39°49' W 075°24'510.0
2018-Jul-22 03:00N 39°45' W 075°29'3 5.1
2018-Jul-22 02:30N 39°43' W 075°31'0 0.0
2018-Jul-22 02:00N 39°43' W 075°31'0 0.0
2018-Jul-22 01:30N 39°43' W 075°31'0 0.0
2018-Jul-22 01:00N 39°43' W 075°31'0 0.0
2018-Jul-22 00:30N 39°43' W 075°31'0 0.0
2018-Jul-22 00:00N 39°43' W 075°31'0 0.0
2018-Jul-21 23:30N 39°43' W 075°31'0 0.0
2018-Jul-21 23:00N 39°43' W 075°31'0 0.0
2018-Jul-21 22:29N 39°43' W 075°31'0 0.0
2018-Jul-21 22:00N 39°43' W 075°31'0 0.0
2018-Jul-21 21:27N 39°43' W 075°31'0 0.0
2018-Jul-21 21:00N 39°43' W 075°31'0 0.0
2018-Jul-21 20:29N 39°43' W 075°31'0 0.0
2018-Jul-21 19:58N 39°43' W 075°31'0 0.0
2018-Jul-21 19:30N 39°43' W 075°31'0 0.0
2018-Jul-21 19:00N 39°43' W 075°31'0 0.0
2018-Jul-21 18:30N 39°43' W 075°31'0 0.0
2018-Jul-21 17:59N 39°43' W 075°31'0 0.0
2018-Jul-21 17:30N 39°43' W 075°31'0 0.0
2018-Jul-21 17:00N 39°43' W 075°31'0 0.0
2018-Jul-21 16:30N 39°43' W 075°31'0 0.0
2018-Jul-21 16:00N 39°43' W 075°31'0 0.0
2018-Jul-21 15:30N 39°43' W 075°31'0 0.0
2018-Jul-21 15:00N 39°43' W 075°31'0 0.0
2018-Jul-21 14:29N 39°43' W 075°31'0 0.0
2018-Jul-21 14:00N 39°43' W 075°31'0 0.0
2018-Jul-21 13:30N 39°43' W 075°31'0 0.0
2018-Jul-21 13:00N 39°43' W 075°31'0 0.0
2018-Jul-21 12:30N 39°43' W 075°31'0 0.0
2018-Jul-21 12:00N 39°43' W 075°31'0 0.0
2018-Jul-21 11:29N 39°43' W 075°31'0 0.0
2018-Jul-21 11:00N 39°43' W 075°31'0 0.0
2018-Jul-21 10:30N 39°43' W 075°31'0 0.0
2018-Jul-21 10:00N 39°43' W 075°31'0 0.0
2018-Jul-21 09:30N 39°43' W 075°31'0 0.0
2018-Jul-21 09:01N 39°43' W 075°31'0 0.0
2018-Jul-21 08:30N 39°43' W 075°31'0 0.0
2018-Jul-21 08:01N 39°43' W 075°31'0 0.0
2018-Jul-21 07:30N 39°43' W 075°31'0 0.0
2018-Jul-21 06:59N 39°43' W 075°31'0 0.0
2018-Jul-21 06:30N 39°43' W 075°31'0 0.0
2018-Jul-21 06:00N 39°43' W 075°31'0 0.0
2018-Jul-21 05:27N 39°43' W 075°31'0 0.7
2018-Jul-21 05:00N 39°43' W 075°31'0 0.6
2018-Jul-21 04:30N 39°43' W 075°31'0 0.0
2018-Jul-21 04:00N 39°43' W 075°31'0 0.0
2018-Jul-21 03:30N 39°43' W 075°31'0 0.0
2018-Jul-21 03:00N 39°43' W 075°31'0 0.0
2018-Jul-21 02:27N 39°43' W 075°31'0 0.0
2018-Jul-21 02:00N 39°43' W 075°31'0 0.0
2018-Jul-21 01:30N 39°43' W 075°31'0 0.0
2018-Jul-21 01:00N 39°43' W 075°31'0 0.0
2018-Jul-21 00:30N 39°43' W 075°31'0 0.0
2018-Jul-21 00:00N 39°43' W 075°31'0 0.0
2018-Jul-20 23:30N 39°43' W 075°31'0 0.0
2018-Jul-20 23:00N 39°43' W 075°31'0 0.0
2018-Jul-20 22:30N 39°43' W 075°31'0 0.0
2018-Jul-20 22:00N 39°43' W 075°31'0 0.0
2018-Jul-20 21:30N 39°43' W 075°31'0 0.0
2018-Jul-20 20:56N 39°43' W 075°31'0 0.0
2018-Jul-20 20:30N 39°43' W 075°31'0 0.0
2018-Jul-20 19:59N 39°43' W 075°31'0 0.0
2018-Jul-20 19:29N 39°43' W 075°31'0 0.0
2018-Jul-20 19:00N 39°43' W 075°31'0 0.0
2018-Jul-20 18:30N 39°43' W 075°31'0 0.0
2018-Jul-20 18:00N 39°43' W 075°31'0 0.0
2018-Jul-20 17:30N 39°43' W 075°31'0 0.0
2018-Jul-20 17:00N 39°43' W 075°31'0 0.0
2018-Jul-20 16:30N 39°43' W 075°31'0 0.0
2018-Jul-20 16:00N 39°43' W 075°31'0 0.0
2018-Jul-20 15:30N 39°43' W 075°31'0 0.0
2018-Jul-20 15:00N 39°43' W 075°31'0 0.0
2018-Jul-20 14:29N 39°43' W 075°31'1 1.2
2018-Jul-20 14:00N 39°42' W 075°31'4 8.9
2018-Jul-20 13:30N 39°39' W 075°34'4 7.9
2018-Jul-20 13:00N 39°35' W 075°35'0 0.0
2018-Jul-20 12:30N 39°35' W 075°35'1 1.5
2018-Jul-20 12:00N 39°35' W 075°35'1 1.2
2018-Jul-20 11:30N 39°34' W 075°34'1 3.0
2018-Jul-20 11:00N 39°35' W 075°36'0 0.0
2018-Jul-20 10:30N 39°35' W 075°36'0 0.4
2018-Jul-20 10:00N 39°35' W 075°35'0 0.0
2018-Jul-20 09:29N 39°35' W 075°35'0 0.0
2018-Jul-20 09:00N 39°35' W 075°35'0 0.0
2018-Jul-20 08:30N 39°35' W 075°35'0 0.0
2018-Jul-20 08:00N 39°35' W 075°35'3 5.5
2018-Jul-20 07:30N 39°38' W 075°36'5 9.6
2018-Jul-20 07:00N 39°41' W 075°32'2 4.0
2018-Jul-20 06:30N 39°43' W 075°32'0 0.7
2018-Jul-20 06:00N 39°43' W 075°31'2 3.5
2018-Jul-20 05:30N 39°41' W 075°31'1 1.6
2018-Jul-20 05:00N 39°42' W 075°31'1 1.8
2018-Jul-20 04:30N 39°43' W 075°31'0 0.0
2018-Jul-20 04:00N 39°43' W 075°31'0 0.0
2018-Jul-20 03:31N 39°43' W 075°31'0 0.0
2018-Jul-20 03:00N 39°43' W 075°31'0 0.0
2018-Jul-20 02:30N 39°43' W 075°31'0 0.0
2018-Jul-20 02:00N 39°43' W 075°31'0 0.0
2018-Jul-20 01:30N 39°43' W 075°31'0 0.0
2018-Jul-20 01:00N 39°43' W 075°31'0 0.1
2018-Jul-20 00:30N 39°43' W 075°31'0 0.1
2018-Jul-20 00:00N 39°43' W 075°31'0 0.0
2018-Jul-19 23:30N 39°43' W 075°31'0 0.0
2018-Jul-19 23:00N 39°43' W 075°31'0 0.0
2018-Jul-19 22:30N 39°43' W 075°31'0 0.0
2018-Jul-19 22:00N 39°43' W 075°31'0 0.0
2018-Jul-19 21:30N 39°43' W 075°31'0 0.0
2018-Jul-19 21:00N 39°43' W 075°31'0 0.0
2018-Jul-19 20:30N 39°43' W 075°31'0 0.0
2018-Jul-19 20:00N 39°43' W 075°31'0 0.0
2018-Jul-19 19:30N 39°43' W 075°31'0 0.0
2018-Jul-19 19:00N 39°43' W 075°31'0 0.0
2018-Jul-19 18:30N 39°43' W 075°31'0 0.2
2018-Jul-19 17:57N 39°43' W 075°31'0 1.0
2018-Jul-19 17:30N 39°43' W 075°31'0 0.4
2018-Jul-19 16:25N 39°43' W 075°31'0 0.0
2018-Jul-19 16:00N 39°43' W 075°31'0 0.0
2018-Jul-19 15:30N 39°43' W 075°31'0 0.0
2018-Jul-19 15:00N 39°43' W 075°31'0 0.0
2018-Jul-19 14:00N 39°43' W 075°31'0 0.0
2018-Jul-19 13:30N 39°43' W 075°31'0 0.0
2018-Jul-19 13:01N 39°43' W 075°31'0 0.0
2018-Jul-19 12:30N 39°43' W 075°31'0 0.0
2018-Jul-19 12:01N 39°43' W 075°31'0 0.0
2018-Jul-19 11:31N 39°43' W 075°31'3 6.7
2018-Jul-19 11:00N 39°40' W 075°32'5 9.5
2018-Jul-19 10:30N 39°35' W 075°34'3 6.4
2018-Jul-19 10:01N 39°38' W 075°34'510.0
2018-Jul-19 09:31N 39°43' W 075°31'5 9.5
2018-Jul-19 09:00N 39°47' W 075°27'3 5.1
2018-Jul-19 08:31N 39°48' W 075°25'3 5.2
2018-Jul-19 08:00N 39°47' W 075°28'5 9.1
2018-Jul-19 07:30N 39°43' W 075°31'0 0.0
2018-Jul-19 07:00N 39°43' W 075°31'0 0.0
2018-Jul-19 06:31N 39°43' W 075°31'0 0.0
2018-Jul-19 06:00N 39°43' W 075°31'0 0.0
2018-Jul-19 05:30N 39°43' W 075°31'0 0.0
2018-Jul-19 05:01N 39°43' W 075°31'0 0.0
2018-Jul-19 04:31N 39°43' W 075°31'0 0.0
2018-Jul-19 04:00N 39°43' W 075°31'0 0.0
2018-Jul-19 03:30N 39°43' W 075°31'0 0.0
2018-Jul-19 03:00N 39°43' W 075°31'0 0.0
2018-Jul-19 02:30N 39°43' W 075°31'0 0.0
2018-Jul-19 02:00N 39°43' W 075°31'0 0.0
2018-Jul-19 01:30N 39°43' W 075°31'1 1.2
2018-Jul-19 01:00N 39°42' W 075°31'5 9.1
2018-Jul-19 00:30N 39°39' W 075°34'4 7.7
2018-Jul-19 00:00N 39°35' W 075°35'0 0.0
2018-Jul-18 23:30N 39°35' W 075°35'0 0.0
2018-Jul-18 23:00N 39°35' W 075°35'0 0.0
2018-Jul-18 22:30N 39°35' W 075°35'2 3.6
2018-Jul-18 22:00N 39°34' W 075°34'1 2.9
2018-Jul-18 21:30N 39°33' W 075°33'3 6.3
2018-Jul-18 21:00N 39°35' W 075°35'3 6.5
2018-Jul-18 20:30N 39°38' W 075°35'5 9.4
2018-Jul-18 20:00N 39°42' W 075°31'1 2.4
2018-Jul-18 19:30N 39°43' W 075°31'0 0.0
2018-Jul-18 19:00N 39°43' W 075°31'0 0.0
2018-Jul-18 18:30N 39°43' W 075°31'0 0.0
2018-Jul-18 18:00N 39°43' W 075°31'0 0.0
2018-Jul-18 17:30N 39°43' W 075°31'0 0.0
2018-Jul-18 17:00N 39°43' W 075°31'0 0.0
2018-Jul-18 16:30N 39°43' W 075°31'0 0.0
2018-Jul-18 16:00N 39°43' W 075°31'0 0.0
2018-Jul-18 15:30N 39°43' W 075°31'0 0.0
2018-Jul-18 15:00N 39°43' W 075°31'0 0.0
2018-Jul-18 14:30N 39°43' W 075°31'0 0.0
2018-Jul-18 13:30N 39°43' W 075°31'0 0.0
2018-Jul-18 13:01N 39°43' W 075°31'0 0.0
2018-Jul-18 12:30N 39°43' W 075°31'0 0.0
2018-Jul-18 12:01N 39°43' W 075°31'0 0.0
2018-Jul-18 11:30N 39°43' W 075°31'8 7.6
2018-Jul-18 10:30N 39°37' W 075°36'1 2.8
2018-Jul-18 10:01N 39°35' W 075°36'0 0.5
2018-Jul-18 09:30N 39°35' W 075°35'0 0.0
2018-Jul-18 09:00N 39°35' W 075°35'0 0.0
2018-Jul-18 08:31N 39°35' W 075°35'0 0.0
2018-Jul-18 08:00N 39°35' W 075°35'0 0.0
2018-Jul-18 07:31N 39°35' W 075°35'0 0.0
2018-Jul-18 07:00N 39°35' W 075°35'0 0.0
2018-Jul-18 06:30N 39°35' W 075°35'0 0.0
2018-Jul-18 06:00N 39°35' W 075°35'0 0.0
2018-Jul-18 05:31N 39°35' W 075°35'0 0.0
2018-Jul-18 05:01N 39°35' W 075°35'0 0.1
2018-Jul-18 04:30N 39°35' W 075°35'0 0.0
2018-Jul-18 04:00N 39°35' W 075°35'0 0.0
2018-Jul-18 03:29N 39°35' W 075°35'0 0.0
2018-Jul-18 03:00N 39°35' W 075°35'0 0.0
2018-Jul-18 02:30N 39°35' W 075°35'0 0.0
2018-Jul-18 02:00N 39°35' W 075°35'0 0.0
2018-Jul-18 01:30N 39°35' W 075°35'0 0.0
2018-Jul-18 01:00N 39°35' W 075°35'0 0.0
2018-Jul-18 00:30N 39°35' W 075°35'0 0.0
2018-Jul-18 00:00N 39°35' W 075°35'0 0.0
2018-Jul-17 23:30N 39°35' W 075°35'0 0.6
2018-Jul-17 23:00N 39°35' W 075°36'1 1.4
2018-Jul-17 22:30N 39°36' W 075°36'510.3
2018-Jul-17 22:00N 39°40' W 075°32'610.9
2018-Jul-17 21:29N 39°45' W 075°29'4 9.2
2018-Jul-17 21:00N 39°48' W 075°25'0 0.0
2018-Jul-17 20:30N 39°48' W 075°25'1 2.5
2018-Jul-17 20:00N 39°48' W 075°26'1 2.6
2018-Jul-17 19:30N 39°48' W 075°25'0 0.2
2018-Jul-17 19:00N 39°48' W 075°25'612.1
2018-Jul-17 18:30N 39°44' W 075°30'1 2.3
2018-Jul-17 18:00N 39°43' W 075°31'0 0.0
2018-Jul-17 17:30N 39°43' W 075°31'0 0.0
2018-Jul-17 17:00N 39°43' W 075°31'0 0.0
2018-Jul-17 16:30N 39°43' W 075°31'0 0.0
2018-Jul-17 16:00N 39°43' W 075°31'0 0.0
2018-Jul-17 15:30N 39°43' W 075°31'0 0.0
2018-Jul-17 15:00N 39°43' W 075°31'0 0.0
2018-Jul-17 14:30N 39°43' W 075°31'0 0.0
2018-Jul-17 14:00N 39°43' W 075°31'0 0.0
2018-Jul-17 13:30N 39°43' W 075°31'0 0.0
2018-Jul-17 13:00N 39°43' W 075°31'0 0.0
2018-Jul-17 12:30N 39°43' W 075°31'0 0.0
2018-Jul-17 12:00N 39°43' W 075°31'0 0.1
2018-Jul-17 11:30N 39°43' W 075°31'0 0.0
2018-Jul-17 11:00N 39°43' W 075°31'0 0.0
2018-Jul-17 10:30N 39°43' W 075°31'0 0.0
2018-Jul-17 10:00N 39°43' W 075°31'0 0.0
2018-Jul-17 09:30N 39°43' W 075°31'0 0.0
2018-Jul-17 09:00N 39°43' W 075°31'0 0.0
2018-Jul-17 08:30N 39°43' W 075°31'2 4.3
2018-Jul-17 08:00N 39°41' W 075°32'611.3
2018-Jul-17 07:30N 39°36' W 075°34'1 2.2
2018-Jul-17 07:00N 39°35' W 075°34'1 1.9
2018-Jul-17 06:30N 39°35' W 075°36'2 3.9
2018-Jul-17 06:00N 39°37' W 075°36'5 9.1
2018-Jul-17 05:30N 39°40' W 075°32'3 5.7
2018-Jul-17 05:00N 39°43' W 075°31'0 0.0
2018-Jul-17 04:30N 39°43' W 075°31'0 0.0
2018-Jul-17 04:00N 39°43' W 075°31'0 0.0
2018-Jul-17 03:30N 39°43' W 075°31'0 0.0
2018-Jul-17 03:00N 39°43' W 075°31'0 0.0
2018-Jul-17 02:30N 39°43' W 075°31'0 0.0
2018-Jul-17 02:00N 39°43' W 075°31'0 0.0
2018-Jul-17 01:30N 39°43' W 075°31'0 0.0
2018-Jul-17 01:00N 39°43' W 075°31'0 0.0
2018-Jul-17 00:30N 39°43' W 075°31'0 0.0
2018-Jul-16 23:30N 39°43' W 075°31'0 0.0
2018-Jul-16 23:00N 39°43' W 075°31'0 0.0
2018-Jul-16 22:31N 39°43' W 075°31'0 0.0
2018-Jul-16 22:00N 39°43' W 075°31'0 0.0
2018-Jul-16 21:30N 39°43' W 075°31'0 0.0
2018-Jul-16 21:00N 39°43' W 075°31'0 0.0
2018-Jul-16 20:30N 39°43' W 075°31'0 0.0
2018-Jul-16 20:00N 39°43' W 075°31'0 0.0
2018-Jul-16 19:30N 39°43' W 075°31'0 0.0
2018-Jul-16 19:00N 39°43' W 075°31'0 0.0
2018-Jul-16 18:30N 39°43' W 075°31'0 0.0
2018-Jul-16 18:00N 39°43' W 075°31'0 0.0
2018-Jul-16 17:30N 39°43' W 075°31'0 0.0
2018-Jul-16 17:00N 39°43' W 075°31'0 0.0
2018-Jul-16 16:31N 39°43' W 075°31'0 0.0
2018-Jul-16 16:00N 39°43' W 075°31'0 0.0
2018-Jul-16 15:30N 39°43' W 075°31'0 0.0
2018-Jul-16 15:00N 39°43' W 075°31'0 0.0
2018-Jul-16 14:30N 39°43' W 075°31'0 0.0
2018-Jul-16 14:00N 39°43' W 075°31'0 0.0
2018-Jul-16 13:30N 39°43' W 075°31'0 0.0
2018-Jul-16 13:00N 39°43' W 075°31'0 0.0
2018-Jul-16 12:30N 39°43' W 075°31'0 0.0
2018-Jul-16 12:00N 39°43' W 075°31'0 0.0
2018-Jul-16 11:31N 39°43' W 075°31'0 0.0
2018-Jul-16 11:01N 39°43' W 075°31'0 0.0
2018-Jul-16 10:31N 39°43' W 075°31'0 0.0
2018-Jul-16 10:01N 39°43' W 075°31'0 0.0
2018-Jul-16 09:31N 39°43' W 075°31'0 0.0
2018-Jul-16 09:00N 39°43' W 075°31'0 0.0
2018-Jul-16 08:31N 39°43' W 075°31'0 0.0
2018-Jul-16 08:01N 39°43' W 075°31'0 0.0
2018-Jul-16 07:30N 39°43' W 075°31'0 0.0
2018-Jul-16 07:01N 39°43' W 075°31'0 0.0
2018-Jul-16 06:30N 39°43' W 075°31'0 0.0
2018-Jul-16 06:00N 39°43' W 075°31'0 0.0
2018-Jul-16 05:31N 39°43' W 075°31'0 0.0
2018-Jul-16 05:01N 39°43' W 075°31'0 0.0
2018-Jul-16 04:30N 39°43' W 075°31'0 0.0
2018-Jul-16 04:01N 39°43' W 075°31'0 0.0
2018-Jul-16 03:31N 39°43' W 075°31'0 0.0
2018-Jul-16 03:00N 39°43' W 075°31'0 0.0
2018-Jul-16 02:30N 39°43' W 075°31'0 0.0
2018-Jul-16 02:00N 39°43' W 075°31'0 0.0
2018-Jul-16 01:30N 39°43' W 075°31'0 0.0
2018-Jul-16 01:00N 39°43' W 075°31'0 0.0
2018-Jul-16 00:30N 39°43' W 075°31'0 0.7
2018-Jul-16 00:00N 39°43' W 075°31'4 8.8
2018-Jul-15 23:30N 39°39' W 075°34'4 8.2
2018-Jul-15 23:00N 39°35' W 075°36'0 0.5
2018-Jul-15 22:30N 39°35' W 075°36'0 0.6
2018-Jul-15 22:00N 39°35' W 075°35'0 0.0
2018-Jul-15 21:30N 39°35' W 075°35'0 0.0
2018-Jul-15 21:00N 39°35' W 075°35'0 0.0
2018-Jul-15 20:30N 39°35' W 075°35'0 0.4
2018-Jul-15 20:00N 39°35' W 075°36'0 0.3
2018-Jul-15 19:30N 39°35' W 075°35'2 3.2
2018-Jul-15 19:00N 39°34' W 075°34'0 0.4
2018-Jul-15 18:31N 39°34' W 075°33'2 4.5
2018-Jul-15 18:00N 39°36' W 075°36'4 8.2
2018-Jul-15 17:30N 39°39' W 075°34'4 8.3
2018-Jul-15 17:00N 39°43' W 075°31'0 0.1
2018-Jul-15 16:30N 39°43' W 075°31'0 0.1
2018-Jul-15 16:00N 39°43' W 075°31'0 0.0
2018-Jul-15 15:30N 39°43' W 075°31'0 0.0
2018-Jul-15 15:00N 39°43' W 075°31'0 0.0
2018-Jul-15 14:31N 39°43' W 075°31'0 0.0
2018-Jul-15 14:00N 39°43' W 075°31'0 0.0
2018-Jul-15 13:31N 39°43' W 075°31'0 0.0
2018-Jul-15 13:01N 39°43' W 075°31'0 0.0
2018-Jul-15 12:30N 39°43' W 075°31'0 0.0
2018-Jul-15 12:00N 39°43' W 075°31'0 0.0
2018-Jul-15 11:30N 39°43' W 075°31'0 0.0
2018-Jul-15 11:00N 39°43' W 075°31'0 0.0
2018-Jul-15 10:30N 39°43' W 075°31'0 0.0
2018-Jul-15 10:00N 39°43' W 075°31'0 0.0
2018-Jul-15 09:31N 39°43' W 075°31'0 0.0
2018-Jul-15 09:01N 39°43' W 075°31'0 0.0
2018-Jul-15 08:30N 39°43' W 075°31'0 0.0
2018-Jul-15 08:01N 39°43' W 075°31'0 0.3
2018-Jul-15 07:31N 39°43' W 075°31'1 2.9
2018-Jul-15 07:00N 39°42' W 075°31'0 0.5
2018-Jul-15 06:31N 39°42' W 075°31'1 1.1
2018-Jul-15 06:00N 39°43' W 075°31'1 1.2
2018-Jul-15 05:30N 39°43' W 075°31'0 0.0
2018-Jul-15 05:00N 39°43' W 075°31'0 0.0
2018-Jul-15 04:31N 39°43' W 075°31'0 0.0
2018-Jul-15 04:00N 39°43' W 075°31'0 0.0
2018-Jul-15 03:31N 39°43' W 075°31'0 0.0
2018-Jul-15 03:00N 39°43' W 075°31'0 0.0
2018-Jul-15 02:30N 39°43' W 075°31'0 0.0
2018-Jul-15 02:01N 39°43' W 075°31'0 0.0
2018-Jul-15 01:30N 39°43' W 075°31'0 0.0
2018-Jul-15 01:00N 39°43' W 075°31'0 0.0
2018-Jul-15 00:30N 39°43' W 075°31'0 0.0
2018-Jul-15 00:00N 39°43' W 075°31'0 0.0
2018-Jul-14 23:30N 39°43' W 075°31'0 0.0
2018-Jul-14 23:00N 39°43' W 075°31'0 0.0
2018-Jul-14 22:30N 39°43' W 075°31'0 0.0
2018-Jul-14 22:00N 39°43' W 075°31'1 1.2
2018-Jul-14 21:30N 39°43' W 075°31'0 0.2
2018-Jul-14 21:00N 39°43' W 075°31'2 4.1
2018-Jul-14 20:30N 39°41' W 075°31'2 4.2
2018-Jul-14 20:00N 39°43' W 075°31'0 0.9
2018-Jul-14 19:30N 39°43' W 075°31'0 0.1
2018-Jul-14 19:00N 39°43' W 075°31'3 5.0
2018-Jul-14 18:30N 39°41' W 075°31'2 4.9
2018-Jul-14 18:00N 39°43' W 075°31'0 0.0
2018-Jul-14 17:30N 39°43' W 075°31'0 0.0
2018-Jul-14 17:00N 39°43' W 075°31'0 0.0
2018-Jul-14 16:30N 39°43' W 075°31'0 0.0
2018-Jul-14 16:00N 39°43' W 075°31'0 0.0
2018-Jul-14 15:30N 39°43' W 075°31'0 0.0
2018-Jul-14 15:00N 39°43' W 075°31'0 0.0
2018-Jul-14 14:30N 39°43' W 075°31'0 0.0
2018-Jul-14 13:30N 39°43' W 075°31'0 0.0
2018-Jul-14 13:00N 39°43' W 075°31'0 0.0
2018-Jul-14 12:30N 39°43' W 075°31'0 0.0
2018-Jul-14 12:01N 39°43' W 075°31'0 0.0
2018-Jul-14 11:30N 39°43' W 075°31'0 0.0
2018-Jul-14 11:00N 39°43' W 075°31'0 0.0
2018-Jul-14 10:30N 39°43' W 075°31'0 0.0
2018-Jul-14 10:00N 39°43' W 075°31'0 0.0
2018-Jul-14 09:30N 39°43' W 075°31'0 0.0
2018-Jul-14 09:00N 39°43' W 075°31'0 0.0
2018-Jul-14 08:30N 39°43' W 075°31'0 0.0
2018-Jul-14 08:00N 39°43' W 075°31'0 0.0
2018-Jul-14 07:30N 39°43' W 075°31'0 0.0
2018-Jul-14 07:00N 39°43' W 075°31'0 0.0
2018-Jul-14 06:30N 39°43' W 075°31'0 0.0
2018-Jul-14 06:00N 39°43' W 075°31'0 0.0
2018-Jul-14 05:30N 39°43' W 075°31'0 0.0
2018-Jul-14 04:58N 39°43' W 075°31'0 0.0
2018-Jul-14 04:30N 39°43' W 075°31'0 0.0
2018-Jul-14 03:59N 39°43' W 075°31'0 0.0
2018-Jul-14 03:30N 39°43' W 075°31'0 0.0
2018-Jul-14 03:01N 39°43' W 075°31'0 0.0
2018-Jul-14 02:31N 39°43' W 075°31'0 0.0
2018-Jul-14 02:00N 39°43' W 075°31'0 0.0
2018-Jul-14 01:30N 39°43' W 075°31'0 0.0
2018-Jul-14 01:00N 39°43' W 075°31'0 0.0
2018-Jul-14 00:30N 39°43' W 075°31'0 0.0
2018-Jul-14 00:00N 39°43' W 075°31'0 0.1
2018-Jul-13 23:30N 39°43' W 075°31'0 0.1
2018-Jul-13 23:00N 39°43' W 075°31'0 0.0
2018-Jul-13 22:30N 39°43' W 075°31'0 0.0
2018-Jul-13 21:59N 39°43' W 075°31'0 0.0
2018-Jul-13 21:30N 39°43' W 075°31'0 0.7
2018-Jul-13 21:00N 39°43' W 075°31'0 0.7
2018-Jul-13 20:30N 39°43' W 075°31'0 0.0
2018-Jul-13 20:00N 39°43' W 075°31'0 0.0
2018-Jul-13 19:30N 39°43' W 075°31'0 0.0
2018-Jul-13 19:00N 39°43' W 075°31'0 0.0
2018-Jul-13 18:30N 39°43' W 075°31'0 0.0
2018-Jul-13 18:00N 39°43' W 075°31'0 0.0
2018-Jul-13 17:30N 39°43' W 075°31'0 0.9
2018-Jul-13 17:00N 39°43' W 075°30'0 0.9
2018-Jul-13 16:30N 39°43' W 075°31'0 0.0
2018-Jul-13 16:00N 39°43' W 075°31'0 0.0
2018-Jul-13 15:30N 39°43' W 075°31'0 0.0
2018-Jul-13 15:00N 39°43' W 075°31'0 0.0
2018-Jul-13 14:30N 39°43' W 075°31'0 0.0
2018-Jul-13 13:30N 39°43' W 075°31'0 0.0
2018-Jul-13 13:01N 39°43' W 075°31'0 0.0
2018-Jul-13 12:30N 39°43' W 075°31'0 0.0
2018-Jul-13 12:00N 39°43' W 075°31'0 0.0
2018-Jul-13 11:30N 39°43' W 075°31'0 0.0
2018-Jul-13 11:00N 39°43' W 075°31'0 0.0
2018-Jul-13 10:30N 39°43' W 075°31'0 0.0
2018-Jul-13 10:00N 39°43' W 075°31'0 0.0
2018-Jul-13 09:30N 39°43' W 075°31'0 0.0
2018-Jul-13 08:59N 39°43' W 075°31'0 0.0
2018-Jul-13 08:30N 39°43' W 075°31'0 0.0
2018-Jul-13 08:00N 39°43' W 075°31'0 0.0
2018-Jul-13 07:30N 39°43' W 075°31'  
Track history (hours):
 
Tides and Currents Weather Stations Pressure Air Temp Water Temp Dewpoint Dewpoint Depression Visibility Wind Speed Wind Dir Waves Ship Positions

Sally

Owner: Wilmington Tug, Inc., New Castle, DE. More information available from US FCC via Universal Licensing System and Coast Guard Vessel Documentation Center.

Last reported at 2018-Jul-23 07:30 UTC. Time now 2018-Jul-23 07:30 UTC.
Position N 39°43' W 075°31'.

Length 24 m; draft 4 m.

Type: Tug. MMSI: 367012660.

Date/timePositionNaut miles runAvg speedWind from/ knotsBaromVisibWave heightAir tempDewpointWater temp
2018-Jul-23 07:30N 39°43' W 075°31'0 0.0
2018-Jul-23 07:00N 39°43' W 075°31'0 0.0
2018-Jul-23 06:30N 39°43' W 075°31'0 0.0
2018-Jul-23 06:00N 39°43' W 075°31'0 0.0
2018-Jul-23 05:30N 39°43' W 075°31'0 0.0
2018-Jul-23 04:59N 39°43' W 075°31'0 0.0
2018-Jul-23 04:30N 39°43' W 075°31'0 0.0
2018-Jul-23 04:00N 39°43' W 075°31'0 0.0
2018-Jul-23 03:30N 39°43' W 075°31'0 0.0
2018-Jul-23 03:00N 39°43' W 075°31'0 0.0
2018-Jul-23 02:30N 39°43' W 075°31'0 0.0
2018-Jul-23 01:58N 39°43' W 075°31'0 0.0
2018-Jul-23 01:30N 39°43' W 075°31'0 0.0
2018-Jul-23 00:59N 39°43' W 075°31'0 0.0
2018-Jul-23 00:30N 39°43' W 075°31'0 0.0
2018-Jul-22 23:59N 39°43' W 075°31'0 0.0
2018-Jul-22 23:30N 39°43' W 075°31'0 0.0
2018-Jul-22 23:00N 39°43' W 075°31'0 0.0
2018-Jul-22 22:30N 39°43' W 075°31'0 0.0
2018-Jul-22 21:59N 39°43' W 075°31'0 0.0
2018-Jul-22 21:30N 39°43' W 075°31'0 0.0
2018-Jul-22 21:00N 39°43' W 075°31'0 0.0
2018-Jul-22 20:30N 39°43' W 075°31'2 4.7
2018-Jul-22 20:00N 39°45' W 075°29'5 9.4
2018-Jul-22 19:30N 39°48' W 075°25'0 0.4
2018-Jul-22 18:59N 39°48' W 075°25'0 0.4
2018-Jul-22 18:29N 39°49' W 075°25'3 6.2
2018-Jul-22 18:00N 39°50' W 075°22'4 8.4
2018-Jul-22 17:30N 39°51' W 075°16'0 0.2
2018-Jul-22 17:00N 39°51' W 075°16'0 0.0
2018-Jul-22 16:30N 39°51' W 075°16'0 0.3
2018-Jul-22 16:00N 39°51' W 075°16'0 0.2
2018-Jul-22 15:00N 39°51' W 075°16'5 9.1
2018-Jul-22 14:30N 39°53' W 075°11'0 0.0
2018-Jul-22 14:00N 39°53' W 075°11'0 0.0
2018-Jul-22 13:30N 39°53' W 075°11'0 0.0
2018-Jul-22 13:00N 39°53' W 075°11'0 0.0
2018-Jul-22 12:30N 39°53' W 075°11'0 0.0
2018-Jul-22 12:00N 39°53' W 075°11'0 0.0
2018-Jul-22 11:31N 39°53' W 075°11'0 0.0
2018-Jul-22 11:00N 39°53' W 075°11'0 0.0
2018-Jul-22 10:30N 39°53' W 075°11'2 4.1
2018-Jul-22 10:01N 39°55' W 075°13'0 0.0
2018-Jul-22 09:30N 39°55' W 075°13'1 1.1
2018-Jul-22 09:01N 39°54' W 075°13'2 3.3
2018-Jul-22 08:30N 39°53' W 075°11'0 0.2
2018-Jul-22 08:00N 39°53' W 075°11'3 5.3
2018-Jul-22 07:30N 39°52' W 075°14'2 3.8
2018-Jul-22 07:00N 39°51' W 075°16'0 0.7
2018-Jul-22 06:30N 39°51' W 075°16'0 0.0
2018-Jul-22 06:01N 39°51' W 075°16'0 0.0
2018-Jul-22 05:30N 39°51' W 075°16'0 0.0
2018-Jul-22 05:00N 39°51' W 075°16'0 0.4
2018-Jul-22 04:30N 39°51' W 075°16'2 4.9
2018-Jul-22 04:00N 39°51' W 075°19'5 9.2
2018-Jul-22 03:30N 39°49' W 075°24'510.0
2018-Jul-22 03:00N 39°45' W 075°29'3 5.1
2018-Jul-22 02:30N 39°43' W 075°31'0 0.0
2018-Jul-22 02:00N 39°43' W 075°31'0 0.0
2018-Jul-22 01:30N 39°43' W 075°31'0 0.0
2018-Jul-22 01:00N 39°43' W 075°31'0 0.0
2018-Jul-22 00:30N 39°43' W 075°31'0 0.0
2018-Jul-22 00:00N 39°43' W 075°31'0 0.0
2018-Jul-21 23:30N 39°43' W 075°31'0 0.0
2018-Jul-21 23:00N 39°43' W 075°31'0 0.0
2018-Jul-21 22:29N 39°43' W 075°31'0 0.0
2018-Jul-21 22:00N 39°43' W 075°31'0 0.0
2018-Jul-21 21:27N 39°43' W 075°31'0 0.0
2018-Jul-21 21:00N 39°43' W 075°31'0 0.0
2018-Jul-21 20:29N 39°43' W 075°31'0 0.0
2018-Jul-21 19:58N 39°43' W 075°31'0 0.0
2018-Jul-21 19:30N 39°43' W 075°31'0 0.0
2018-Jul-21 19:00N 39°43' W 075°31'0 0.0
2018-Jul-21 18:30N 39°43' W 075°31'0 0.0
2018-Jul-21 17:59N 39°43' W 075°31'0 0.0
2018-Jul-21 17:30N 39°43' W 075°31'0 0.0
2018-Jul-21 17:00N 39°43' W 075°31'0 0.0
2018-Jul-21 16:30N 39°43' W 075°31'0 0.0
2018-Jul-21 16:00N 39°43' W 075°31'0 0.0
2018-Jul-21 15:30N 39°43' W 075°31'0 0.0
2018-Jul-21 15:00N 39°43' W 075°31'0 0.0
2018-Jul-21 14:29N 39°43' W 075°31'0 0.0
2018-Jul-21 14:00N 39°43' W 075°31'0 0.0
2018-Jul-21 13:30N 39°43' W 075°31'0 0.0
2018-Jul-21 13:00N 39°43' W 075°31'0 0.0
2018-Jul-21 12:30N 39°43' W 075°31'0 0.0
2018-Jul-21 12:00N 39°43' W 075°31'0 0.0
2018-Jul-21 11:29N 39°43' W 075°31'0 0.0
2018-Jul-21 11:00N 39°43' W 075°31'0 0.0
2018-Jul-21 10:30N 39°43' W 075°31'0 0.0
2018-Jul-21 10:00N 39°43' W 075°31'0 0.0
2018-Jul-21 09:30N 39°43' W 075°31'0 0.0
2018-Jul-21 09:01N 39°43' W 075°31'0 0.0
2018-Jul-21 08:30N 39°43' W 075°31'0 0.0
2018-Jul-21 08:01N 39°43' W 075°31'0 0.0
2018-Jul-21 07:30N 39°43' W 075°31'0 0.0
2018-Jul-21 06:59N 39°43' W 075°31'0 0.0
2018-Jul-21 06:30N 39°43' W 075°31'0 0.0
2018-Jul-21 06:00N 39°43' W 075°31'0 0.0
2018-Jul-21 05:27N 39°43' W 075°31'0 0.7
2018-Jul-21 05:00N 39°43' W 075°31'0 0.6
2018-Jul-21 04:30N 39°43' W 075°31'0 0.0
2018-Jul-21 04:00N 39°43' W 075°31'0 0.0
2018-Jul-21 03:30N 39°43' W 075°31'0 0.0
2018-Jul-21 03:00N 39°43' W 075°31'0 0.0
2018-Jul-21 02:27N 39°43' W 075°31'0 0.0
2018-Jul-21 02:00N 39°43' W 075°31'0 0.0
2018-Jul-21 01:30N 39°43' W 075°31'0 0.0
2018-Jul-21 01:00N 39°43' W 075°31'0 0.0
2018-Jul-21 00:30N 39°43' W 075°31'0 0.0
2018-Jul-21 00:00N 39°43' W 075°31'0 0.0
2018-Jul-20 23:30N 39°43' W 075°31'0 0.0
2018-Jul-20 23:00N 39°43' W 075°31'0 0.0
2018-Jul-20 22:30N 39°43' W 075°31'0 0.0
2018-Jul-20 22:00N 39°43' W 075°31'0 0.0
2018-Jul-20 21:30N 39°43' W 075°31'0 0.0
2018-Jul-20 20:56N 39°43' W 075°31'0 0.0
2018-Jul-20 20:30N 39°43' W 075°31'0 0.0
2018-Jul-20 19:59N 39°43' W 075°31'0 0.0
2018-Jul-20 19:29N 39°43' W 075°31'0 0.0
2018-Jul-20 19:00N 39°43' W 075°31'0 0.0
2018-Jul-20 18:30N 39°43' W 075°31'0 0.0
2018-Jul-20 18:00N 39°43' W 075°31'0 0.0
2018-Jul-20 17:30N 39°43' W 075°31'0 0.0
2018-Jul-20 17:00N 39°43' W 075°31'0 0.0
2018-Jul-20 16:30N 39°43' W 075°31'0 0.0
2018-Jul-20 16:00N 39°43' W 075°31'0 0.0
2018-Jul-20 15:30N 39°43' W 075°31'0 0.0
2018-Jul-20 15:00N 39°43' W 075°31'0 0.0
2018-Jul-20 14:29N 39°43' W 075°31'1 1.2
2018-Jul-20 14:00N 39°42' W 075°31'4 8.9
2018-Jul-20 13:30N 39°39' W 075°34'4 7.9
2018-Jul-20 13:00N 39°35' W 075°35'0 0.0
2018-Jul-20 12:30N 39°35' W 075°35'1 1.5
2018-Jul-20 12:00N 39°35' W 075°35'1 1.2
2018-Jul-20 11:30N 39°34' W 075°34'1 3.0
2018-Jul-20 11:00N 39°35' W 075°36'0 0.0
2018-Jul-20 10:30N 39°35' W 075°36'0 0.4
2018-Jul-20 10:00N 39°35' W 075°35'0 0.0
2018-Jul-20 09:29N 39°35' W 075°35'0 0.0
2018-Jul-20 09:00N 39°35' W 075°35'0 0.0
2018-Jul-20 08:30N 39°35' W 075°35'0 0.0
2018-Jul-20 08:00N 39°35' W 075°35'3 5.5
2018-Jul-20 07:30N 39°38' W 075°36'5 9.6
2018-Jul-20 07:00N 39°41' W 075°32'2 4.0
2018-Jul-20 06:30N 39°43' W 075°32'0 0.7
2018-Jul-20 06:00N 39°43' W 075°31'2 3.5
2018-Jul-20 05:30N 39°41' W 075°31'1 1.6
2018-Jul-20 05:00N 39°42' W 075°31'1 1.8
2018-Jul-20 04:30N 39°43' W 075°31'0 0.0
2018-Jul-20 04:00N 39°43' W 075°31'0 0.0
2018-Jul-20 03:31N 39°43' W 075°31'0 0.0
2018-Jul-20 03:00N 39°43' W 075°31'0 0.0
2018-Jul-20 02:30N 39°43' W 075°31'0 0.0
2018-Jul-20 02:00N 39°43' W 075°31'0 0.0
2018-Jul-20 01:30N 39°43' W 075°31'0 0.0
2018-Jul-20 01:00N 39°43' W 075°31'0 0.1
2018-Jul-20 00:30N 39°43' W 075°31'0 0.1
2018-Jul-20 00:00N 39°43' W 075°31'0 0.0
2018-Jul-19 23:30N 39°43' W 075°31'0 0.0
2018-Jul-19 23:00N 39°43' W 075°31'0 0.0
2018-Jul-19 22:30N 39°43' W 075°31'0 0.0
2018-Jul-19 22:00N 39°43' W 075°31'0 0.0
2018-Jul-19 21:30N 39°43' W 075°31'0 0.0
2018-Jul-19 21:00N 39°43' W 075°31'0 0.0
2018-Jul-19 20:30N 39°43' W 075°31'0 0.0
2018-Jul-19 20:00N 39°43' W 075°31'0 0.0
2018-Jul-19 19:30N 39°43' W 075°31'0 0.0
2018-Jul-19 19:00N 39°43' W 075°31'0 0.0
2018-Jul-19 18:30N 39°43' W 075°31'0 0.2
2018-Jul-19 17:57N 39°43' W 075°31'0 1.0
2018-Jul-19 17:30N 39°43' W 075°31'0 0.4
2018-Jul-19 16:25N 39°43' W 075°31'0 0.0
2018-Jul-19 16:00N 39°43' W 075°31'0 0.0
2018-Jul-19 15:30N 39°43' W 075°31'0 0.0
2018-Jul-19 15:00N 39°43' W 075°31'0 0.0
2018-Jul-19 14:00N 39°43' W 075°31'0 0.0
2018-Jul-19 13:30N 39°43' W 075°31'0 0.0
2018-Jul-19 13:01N 39°43' W 075°31'0 0.0
2018-Jul-19 12:30N 39°43' W 075°31'0 0.0
2018-Jul-19 12:01N 39°43' W 075°31'0 0.0
2018-Jul-19 11:31N 39°43' W 075°31'3 6.7
2018-Jul-19 11:00N 39°40' W 075°32'5 9.5
2018-Jul-19 10:30N 39°35' W 075°34'3 6.4
2018-Jul-19 10:01N 39°38' W 075°34'510.0
2018-Jul-19 09:31N 39°43' W 075°31'5 9.5
2018-Jul-19 09:00N 39°47' W 075°27'3 5.1
2018-Jul-19 08:31N 39°48' W 075°25'3 5.2
2018-Jul-19 08:00N 39°47' W 075°28'5 9.1
2018-Jul-19 07:30N 39°43' W 075°31'0 0.0
2018-Jul-19 07:00N 39°43' W 075°31'0 0.0
2018-Jul-19 06:31N 39°43' W 075°31'0 0.0
2018-Jul-19 06:00N 39°43' W 075°31'0 0.0
2018-Jul-19 05:30N 39°43' W 075°31'0 0.0
2018-Jul-19 05:01N 39°43' W 075°31'0 0.0
2018-Jul-19 04:31N 39°43' W 075°31'0 0.0
2018-Jul-19 04:00N 39°43' W 075°31'0 0.0
2018-Jul-19 03:30N 39°43' W 075°31'0 0.0
2018-Jul-19 03:00N 39°43' W 075°31'0 0.0
2018-Jul-19 02:30N 39°43' W 075°31'0 0.0
2018-Jul-19 02:00N 39°43' W 075°31'0 0.0
2018-Jul-19 01:30N 39°43' W 075°31'1 1.2
2018-Jul-19 01:00N 39°42' W 075°31'5 9.1
2018-Jul-19 00:30N 39°39' W 075°34'4 7.7
2018-Jul-19 00:00N 39°35' W 075°35'0 0.0
2018-Jul-18 23:30N 39°35' W 075°35'0 0.0
2018-Jul-18 23:00N 39°35' W 075°35'0 0.0
2018-Jul-18 22:30N 39°35' W 075°35'2 3.6
2018-Jul-18 22:00N 39°34' W 075°34'1 2.9
2018-Jul-18 21:30N 39°33' W 075°33'3 6.3
2018-Jul-18 21:00N 39°35' W 075°35'3 6.5
2018-Jul-18 20:30N 39°38' W 075°35'5 9.4
2018-Jul-18 20:00N 39°42' W 075°31'1 2.4
2018-Jul-18 19:30N 39°43' W 075°31'0 0.0
2018-Jul-18 19:00N 39°43' W 075°31'0 0.0
2018-Jul-18 18:30N 39°43' W 075°31'0 0.0
2018-Jul-18 18:00N 39°43' W 075°31'0 0.0
2018-Jul-18 17:30N 39°43' W 075°31'0 0.0
2018-Jul-18 17:00N 39°43' W 075°31'0 0.0
2018-Jul-18 16:30N 39°43' W 075°31'0 0.0
2018-Jul-18 16:00N 39°43' W 075°31'0 0.0
2018-Jul-18 15:30N 39°43' W 075°31'0 0.0
2018-Jul-18 15:00N 39°43' W 075°31'0 0.0
2018-Jul-18 14:30N 39°43' W 075°31'0 0.0
2018-Jul-18 13:30N 39°43' W 075°31'0 0.0
2018-Jul-18 13:01N 39°43' W 075°31'0 0.0
2018-Jul-18 12:30N 39°43' W 075°31'0 0.0
2018-Jul-18 12:01N 39°43' W 075°31'0 0.0
2018-Jul-18 11:30N 39°43' W 075°31'8 7.6
2018-Jul-18 10:30N 39°37' W 075°36'1 2.8
2018-Jul-18 10:01N 39°35' W 075°36'0 0.5
2018-Jul-18 09:30N 39°35' W 075°35'0 0.0
2018-Jul-18 09:00N 39°35' W 075°35'0 0.0
2018-Jul-18 08:31N 39°35' W 075°35'0 0.0
2018-Jul-18 08:00N 39°35' W 075°35'0 0.0
2018-Jul-18 07:31N 39°35' W 075°35'0 0.0
2018-Jul-18 07:00N 39°35' W 075°35'0 0.0
2018-Jul-18 06:30N 39°35' W 075°35'0 0.0
2018-Jul-18 06:00N 39°35' W 075°35'0 0.0
2018-Jul-18 05:31N 39°35' W 075°35'0 0.0
2018-Jul-18 05:01N 39°35' W 075°35'0 0.1
2018-Jul-18 04:30N 39°35' W 075°35'0 0.0
2018-Jul-18 04:00N 39°35' W 075°35'0 0.0
2018-Jul-18 03:29N 39°35' W 075°35'0 0.0
2018-Jul-18 03:00N 39°35' W 075°35'0 0.0
2018-Jul-18 02:30N 39°35' W 075°35'0 0.0
2018-Jul-18 02:00N 39°35' W 075°35'0 0.0
2018-Jul-18 01:30N 39°35' W 075°35'0 0.0
2018-Jul-18 01:00N 39°35' W 075°35'0 0.0
2018-Jul-18 00:30N 39°35' W 075°35'0 0.0
2018-Jul-18 00:00N 39°35' W 075°35'0 0.0
2018-Jul-17 23:30N 39°35' W 075°35'0 0.6
2018-Jul-17 23:00N 39°35' W 075°36'1 1.4
2018-Jul-17 22:30N 39°36' W 075°36'510.3
2018-Jul-17 22:00N 39°40' W 075°32'610.9
2018-Jul-17 21:29N 39°45' W 075°29'4 9.2
2018-Jul-17 21:00N 39°48' W 075°25'0 0.0
2018-Jul-17 20:30N 39°48' W 075°25'1 2.5
2018-Jul-17 20:00N 39°48' W 075°26'1 2.6
2018-Jul-17 19:30N 39°48' W 075°25'0 0.2
2018-Jul-17 19:00N 39°48' W 075°25'612.1
2018-Jul-17 18:30N 39°44' W 075°30'1 2.3
2018-Jul-17 18:00N 39°43' W 075°31'0 0.0
2018-Jul-17 17:30N 39°43' W 075°31'0 0.0
2018-Jul-17 17:00N 39°43' W 075°31'0 0.0
2018-Jul-17 16:30N 39°43' W 075°31'0 0.0
2018-Jul-17 16:00N 39°43' W 075°31'0 0.0
2018-Jul-17 15:30N 39°43' W 075°31'0 0.0
2018-Jul-17 15:00N 39°43' W 075°31'0 0.0
2018-Jul-17 14:30N 39°43' W 075°31'0 0.0
2018-Jul-17 14:00N 39°43' W 075°31'0 0.0
2018-Jul-17 13:30N 39°43' W 075°31'0 0.0
2018-Jul-17 13:00N 39°43' W 075°31'0 0.0
2018-Jul-17 12:30N 39°43' W 075°31'0 0.0
2018-Jul-17 12:00N 39°43' W 075°31'0 0.1
2018-Jul-17 11:30N 39°43' W 075°31'0 0.0
2018-Jul-17 11:00N 39°43' W 075°31'0 0.0
2018-Jul-17 10:30N 39°43' W 075°31'0 0.0
2018-Jul-17 10:00N 39°43' W 075°31'0 0.0
2018-Jul-17 09:30N 39°43' W 075°31'0 0.0
2018-Jul-17 09:00N 39°43' W 075°31'0 0.0
2018-Jul-17 08:30N 39°43' W 075°31'2 4.3
2018-Jul-17 08:00N 39°41' W 075°32'611.3
2018-Jul-17 07:30N 39°36' W 075°34'1 2.2
2018-Jul-17 07:00N 39°35' W 075°34'1 1.9
2018-Jul-17 06:30N 39°35' W 075°36'2 3.9
2018-Jul-17 06:00N 39°37' W 075°36'5 9.1
2018-Jul-17 05:30N 39°40' W 075°32'3 5.7
2018-Jul-17 05:00N 39°43' W 075°31'0 0.0
2018-Jul-17 04:30N 39°43' W 075°31'0 0.0
2018-Jul-17 04:00N 39°43' W 075°31'0 0.0
2018-Jul-17 03:30N 39°43' W 075°31'0 0.0
2018-Jul-17 03:00N 39°43' W 075°31'0 0.0
2018-Jul-17 02:30N 39°43' W 075°31'0 0.0
2018-Jul-17 02:00N 39°43' W 075°31'0 0.0
2018-Jul-17 01:30N 39°43' W 075°31'0 0.0
2018-Jul-17 01:00N 39°43' W 075°31'0 0.0
2018-Jul-17 00:30N 39°43' W 075°31'0 0.0
2018-Jul-16 23:30N 39°43' W 075°31'0 0.0
2018-Jul-16 23:00N 39°43' W 075°31'0 0.0
2018-Jul-16 22:31N 39°43' W 075°31'0 0.0
2018-Jul-16 22:00N 39°43' W 075°31'0 0.0
2018-Jul-16 21:30N 39°43' W 075°31'0 0.0
2018-Jul-16 21:00N 39°43' W 075°31'0 0.0
2018-Jul-16 20:30N 39°43' W 075°31'0 0.0
2018-Jul-16 20:00N 39°43' W 075°31'0 0.0
2018-Jul-16 19:30N 39°43' W 075°31'0 0.0
2018-Jul-16 19:00N 39°43' W 075°31'0 0.0
2018-Jul-16 18:30N 39°43' W 075°31'0 0.0
2018-Jul-16 18:00N 39°43' W 075°31'0 0.0
2018-Jul-16 17:30N 39°43' W 075°31'0 0.0
2018-Jul-16 17:00N 39°43' W 075°31'0 0.0
2018-Jul-16 16:31N 39°43' W 075°31'0 0.0
2018-Jul-16 16:00N 39°43' W 075°31'0 0.0
2018-Jul-16 15:30N 39°43' W 075°31'0 0.0
2018-Jul-16 15:00N 39°43' W 075°31'0 0.0
2018-Jul-16 14:30N 39°43' W 075°31'0 0.0
2018-Jul-16 14:00N 39°43' W 075°31'0 0.0
2018-Jul-16 13:30N 39°43' W 075°31'0 0.0
2018-Jul-16 13:00N 39°43' W 075°31'0 0.0
2018-Jul-16 12:30N 39°43' W 075°31'0 0.0
2018-Jul-16 12:00N 39°43' W 075°31'0 0.0
2018-Jul-16 11:31N 39°43' W 075°31'0 0.0
2018-Jul-16 11:01N 39°43' W 075°31'0 0.0
2018-Jul-16 10:31N 39°43' W 075°31'0 0.0
2018-Jul-16 10:01N 39°43' W 075°31'0 0.0
2018-Jul-16 09:31N 39°43' W 075°31'0 0.0
2018-Jul-16 09:00N 39°43' W 075°31'0 0.0
2018-Jul-16 08:31N 39°43' W 075°31'0 0.0
2018-Jul-16 08:01N 39°43' W 075°31'0 0.0
2018-Jul-16 07:30N 39°43' W 075°31'0 0.0
2018-Jul-16 07:01N 39°43' W 075°31'0 0.0
2018-Jul-16 06:30N 39°43' W 075°31'0 0.0
2018-Jul-16 06:00N 39°43' W 075°31'0 0.0
2018-Jul-16 05:31N 39°43' W 075°31'0 0.0
2018-Jul-16 05:01N 39°43' W 075°31'0 0.0
2018-Jul-16 04:30N 39°43' W 075°31'0 0.0
2018-Jul-16 04:01N 39°43' W 075°31'0 0.0
2018-Jul-16 03:31N 39°43' W 075°31'0 0.0
2018-Jul-16 03:00N 39°43' W 075°31'0 0.0
2018-Jul-16 02:30N 39°43' W 075°31'0 0.0
2018-Jul-16 02:00N 39°43' W 075°31'0 0.0
2018-Jul-16 01:30N 39°43' W 075°31'0 0.0
2018-Jul-16 01:00N 39°43' W 075°31'0 0.0
2018-Jul-16 00:30N 39°43' W 075°31'0 0.7
2018-Jul-16 00:00N 39°43' W 075°31'4 8.8
2018-Jul-15 23:30N 39°39' W 075°34'4 8.2
2018-Jul-15 23:00N 39°35' W 075°36'0 0.5
2018-Jul-15 22:30N 39°35' W 075°36'0 0.6
2018-Jul-15 22:00N 39°35' W 075°35'0 0.0
2018-Jul-15 21:30N 39°35' W 075°35'0 0.0
2018-Jul-15 21:00N 39°35' W 075°35'0 0.0
2018-Jul-15 20:30N 39°35' W 075°35'0 0.4
2018-Jul-15 20:00N 39°35' W 075°36'0 0.3
2018-Jul-15 19:30N 39°35' W 075°35'2 3.2
2018-Jul-15 19:00N 39°34' W 075°34'0 0.4
2018-Jul-15 18:31N 39°34' W 075°33'2 4.5
2018-Jul-15 18:00N 39°36' W 075°36'4 8.2
2018-Jul-15 17:30N 39°39' W 075°34'4 8.3
2018-Jul-15 17:00N 39°43' W 075°31'0 0.1
2018-Jul-15 16:30N 39°43' W 075°31'0 0.1
2018-Jul-15 16:00N 39°43' W 075°31'0 0.0
2018-Jul-15 15:30N 39°43' W 075°31'0 0.0
2018-Jul-15 15:00N 39°43' W 075°31'0 0.0
2018-Jul-15 14:31N 39°43' W 075°31'0 0.0
2018-Jul-15 14:00N 39°43' W 075°31'0 0.0
2018-Jul-15 13:31N 39°43' W 075°31'0 0.0
2018-Jul-15 13:01N 39°43' W 075°31'0 0.0
2018-Jul-15 12:30N 39°43' W 075°31'0 0.0
2018-Jul-15 12:00N 39°43' W 075°31'0 0.0
2018-Jul-15 11:30N 39°43' W 075°31'0 0.0
2018-Jul-15 11:00N 39°43' W 075°31'0 0.0
2018-Jul-15 10:30N 39°43' W 075°31'0 0.0
2018-Jul-15 10:00N 39°43' W 075°31'0 0.0
2018-Jul-15 09:31N 39°43' W 075°31'0 0.0
2018-Jul-15 09:01N 39°43' W 075°31'0 0.0
2018-Jul-15 08:30N 39°43' W 075°31'0 0.0
2018-Jul-15 08:01N 39°43' W 075°31'0 0.3
2018-Jul-15 07:31N 39°43' W 075°31'1 2.9
2018-Jul-15 07:00N 39°42' W 075°31'0 0.5
2018-Jul-15 06:31N 39°42' W 075°31'1 1.1
2018-Jul-15 06:00N 39°43' W 075°31'1 1.2
2018-Jul-15 05:30N 39°43' W 075°31'0 0.0
2018-Jul-15 05:00N 39°43' W 075°31'0 0.0
2018-Jul-15 04:31N 39°43' W 075°31'0 0.0
2018-Jul-15 04:00N 39°43' W 075°31'0 0.0
2018-Jul-15 03:31N 39°43' W 075°31'0 0.0
2018-Jul-15 03:00N 39°43' W 075°31'0 0.0
2018-Jul-15 02:30N 39°43' W 075°31'0 0.0
2018-Jul-15 02:01N 39°43' W 075°31'0 0.0
2018-Jul-15 01:30N 39°43' W 075°31'0 0.0
2018-Jul-15 01:00N 39°43' W 075°31'0 0.0
2018-Jul-15 00:30N 39°43' W 075°31'0 0.0
2018-Jul-15 00:00N 39°43' W 075°31'0 0.0
2018-Jul-14 23:30N 39°43' W 075°31'0 0.0
2018-Jul-14 23:00N 39°43' W 075°31'0 0.0
2018-Jul-14 22:30N 39°43' W 075°31'0 0.0
2018-Jul-14 22:00N 39°43' W 075°31'1 1.2
2018-Jul-14 21:30N 39°43' W 075°31'0 0.2
2018-Jul-14 21:00N 39°43' W 075°31'2 4.1
2018-Jul-14 20:30N 39°41' W 075°31'2 4.2
2018-Jul-14 20:00N 39°43' W 075°31'0 0.9
2018-Jul-14 19:30N 39°43' W 075°31'0 0.1
2018-Jul-14 19:00N 39°43' W 075°31'3 5.0
2018-Jul-14 18:30N 39°41' W 075°31'2 4.9
2018-Jul-14 18:00N 39°43' W 075°31'0 0.0
2018-Jul-14 17:30N 39°43' W 075°31'0 0.0
2018-Jul-14 17:00N 39°43' W 075°31'0 0.0
2018-Jul-14 16:30N 39°43' W 075°31'0 0.0
2018-Jul-14 16:00N 39°43' W 075°31'0 0.0
2018-Jul-14 15:30N 39°43' W 075°31'0 0.0
2018-Jul-14 15:00N 39°43' W 075°31'0 0.0
2018-Jul-14 14:30N 39°43' W 075°31'0 0.0
2018-Jul-14 13:30N 39°43' W 075°31'0 0.0
2018-Jul-14 13:00N 39°43' W 075°31'0 0.0
2018-Jul-14 12:30N 39°43' W 075°31'0 0.0
2018-Jul-14 12:01N 39°43' W 075°31'0 0.0
2018-Jul-14 11:30N 39°43' W 075°31'0 0.0
2018-Jul-14 11:00N 39°43' W 075°31'0 0.0
2018-Jul-14 10:30N 39°43' W 075°31'0 0.0
2018-Jul-14 10:00N 39°43' W 075°31'0 0.0
2018-Jul-14 09:30N 39°43' W 075°31'0 0.0
2018-Jul-14 09:00N 39°43' W 075°31'0 0.0
2018-Jul-14 08:30N 39°43' W 075°31'0 0.0
2018-Jul-14 08:00N 39°43' W 075°31'0 0.0
2018-Jul-14 07:30N 39°43' W 075°31'0 0.0
2018-Jul-14 07:00N 39°43' W 075°31'0 0.0
2018-Jul-14 06:30N 39°43' W 075°31'0 0.0
2018-Jul-14 06:00N 39°43' W 075°31'0 0.0
2018-Jul-14 05:30N 39°43' W 075°31'0 0.0
2018-Jul-14 04:58N 39°43' W 075°31'0 0.0
2018-Jul-14 04:30N 39°43' W 075°31'0 0.0
2018-Jul-14 03:59N 39°43' W 075°31'0 0.0
2018-Jul-14 03:30N 39°43' W 075°31'0 0.0
2018-Jul-14 03:01N 39°43' W 075°31'0 0.0
2018-Jul-14 02:31N 39°43' W 075°31'0 0.0
2018-Jul-14 02:00N 39°43' W 075°31'0 0.0
2018-Jul-14 01:30N 39°43' W 075°31'0 0.0
2018-Jul-14 01:00N 39°43' W 075°31'0 0.0
2018-Jul-14 00:30N 39°43' W 075°31'0 0.0
2018-Jul-14 00:00N 39°43' W 075°31'0 0.1
2018-Jul-13 23:30N 39°43' W 075°31'0 0.1
2018-Jul-13 23:00N 39°43' W 075°31'0 0.0
2018-Jul-13 22:30N 39°43' W 075°31'0 0.0
2018-Jul-13 21:59N 39°43' W 075°31'0 0.0
2018-Jul-13 21:30N 39°43' W 075°31'0 0.7
2018-Jul-13 21:00N 39°43' W 075°31'0 0.7
2018-Jul-13 20:30N 39°43' W 075°31'0 0.0
2018-Jul-13 20:00N 39°43' W 075°31'0 0.0
2018-Jul-13 19:30N 39°43' W 075°31'0 0.0
2018-Jul-13 19:00N 39°43' W 075°31'0 0.0
2018-Jul-13 18:30N 39°43' W 075°31'0 0.0
2018-Jul-13 18:00N 39°43' W 075°31'0 0.0
2018-Jul-13 17:30N 39°43' W 075°31'0 0.9
2018-Jul-13 17:00N 39°43' W 075°30'0 0.9
2018-Jul-13 16:30N 39°43' W 075°31'0 0.0
2018-Jul-13 16:00N 39°43' W 075°31'0 0.0
2018-Jul-13 15:30N 39°43' W 075°31'0 0.0
2018-Jul-13 15:00N 39°43' W 075°31'0 0.0
2018-Jul-13 14:30N 39°43' W 075°31'0 0.0
2018-Jul-13 13:30N 39°43' W 075°31'0 0.0
2018-Jul-13 13:01N 39°43' W 075°31'0 0.0
2018-Jul-13 12:30N 39°43' W 075°31'0 0.0
2018-Jul-13 12:00N 39°43' W 075°31'0 0.0
2018-Jul-13 11:30N 39°43' W 075°31'0 0.0
2018-Jul-13 11:00N 39°43' W 075°31'0 0.0
2018-Jul-13 10:30N 39°43' W 075°31'0 0.0
2018-Jul-13 10:00N 39°43' W 075°31'0 0.0
2018-Jul-13 09:30N 39°43' W 075°31'0 0.0
2018-Jul-13 08:59N 39°43' W 075°31'0 0.0
2018-Jul-13 08:30N 39°43' W 075°31'0 0.0
2018-Jul-13 08:00N 39°43' W 075°31'0 0.0
2018-Jul-13 07:30N 39°43' W 075°31'  

Dump ship's entire track history